SRQ weather

Public forecast

Using degrees Fahrenheit for public forecast. Weather courtesy of forecast.io.

Current aviation weather report (METAR) for Sarasota Bradenton International Airport

Retrieved 2020/08/11 05:53 UTC (36 minutes ago):

KSRQ 110553Z AUTO 10004KT 10SM CLR 26/23 A3002 RMK AO2 SLP166 T02610233 10283 20261 55003

Aviation forecast (TAF) for Sarasota Bradenton International Airport

Retrieved 2020/08/11 06:27 UTC (2 minutes ago):

TAF KSRQ 110525Z 1106/1206 07004KT P6SM FEW060 SCT250 FM111600 30008KT P6SM VCTS SCT035CB BKN250 FM120200 VRB03KT P6SM FEW040 BKN250